sensor_id;sensor_type;location;lat;lon;timestamp;P1;durP1;ratioP1;P2;durP2;ratioP2
71298;SDS011;59083;47.974;21.722;2023-04-24T00:03:00;11.95;;;6.87;;
71298;SDS011;59083;47.974;21.722;2023-04-24T00:06:02;11.73;;;6.60;;
71298;SDS011;59083;47.974;21.722;2023-04-24T00:09:03;13.53;;;6.53;;
71298;SDS011;59083;47.974;21.722;2023-04-24T00:12:05;14.23;;;7.12;;
71298;SDS011;59083;47.974;21.722;2023-04-24T00:15:07;13.93;;;6.87;;
71298;SDS011;59083;47.974;21.722;2023-04-24T00:18:09;13.23;;;7.20;;
71298;SDS011;59083;47.974;21.722;2023-04-24T00:21:10;14.82;;;7.40;;
71298;SDS011;59083;47.974;21.722;2023-04-24T00:24:12;14.73;;;6.80;;
71298;SDS011;59083;47.974;21.722;2023-04-24T00:27:13;13.30;;;7.25;;
71298;SDS011;59083;47.974;21.722;2023-04-24T00:30:14;13.90;;;7.57;;
71298;SDS011;59083;47.974;21.722;2023-04-24T00:33:15;14.57;;;6.93;;
71298;SDS011;59083;47.974;21.722;2023-04-24T00:36:16;12.30;;;6.60;;
71298;SDS011;59083;47.974;21.722;2023-04-24T00:39:20;12.00;;;7.03;;
71298;SDS011;59083;47.974;21.722;2023-04-24T00:42:22;15.82;;;7.78;;
71298;SDS011;59083;47.974;21.722;2023-04-24T00:45:23;14.52;;;7.53;;
71298;SDS011;59083;47.974;21.722;2023-04-24T00:48:24;13.98;;;7.55;;
71298;SDS011;59083;47.974;21.722;2023-04-24T00:51:25;12.35;;;7.10;;
71298;SDS011;59083;47.974;21.722;2023-04-24T00:54:28;13.80;;;7.23;;
71298;SDS011;59083;47.974;21.722;2023-04-24T00:57:29;15.15;;;7.45;;
71298;SDS011;59083;47.974;21.722;2023-04-24T01:00:31;14.13;;;7.40;;
71298;SDS011;59083;47.974;21.722;2023-04-24T01:03:32;14.20;;;7.15;;
71298;SDS011;59083;47.974;21.722;2023-04-24T01:06:34;15.57;;;7.95;;
71298;SDS011;59083;47.974;21.722;2023-04-24T01:09:36;13.10;;;6.93;;
71298;SDS011;59083;47.974;21.722;2023-04-24T01:12:41;15.70;;;8.10;;
71298;SDS011;59083;47.974;21.722;2023-04-24T01:15:42;17.58;;;7.90;;
71298;SDS011;59083;47.974;21.722;2023-04-24T01:18:43;15.13;;;8.52;;
71298;SDS011;59083;47.974;21.722;2023-04-24T01:21:45;13.32;;;8.07;;
71298;SDS011;59083;47.974;21.722;2023-04-24T01:24:53;14.30;;;7.97;;
71298;SDS011;59083;47.974;21.722;2023-04-24T01:27:54;12.52;;;7.82;;
71298;SDS011;59083;47.974;21.722;2023-04-24T01:30:55;15.32;;;8.02;;
71298;SDS011;59083;47.974;21.722;2023-04-24T01:33:57;15.45;;;7.85;;
71298;SDS011;59083;47.974;21.722;2023-04-24T01:36:59;14.57;;;7.97;;
71298;SDS011;59083;47.974;21.722;2023-04-24T01:40:01;16.07;;;8.37;;
71298;SDS011;59083;47.974;21.722;2023-04-24T01:43:02;14.43;;;8.68;;
71298;SDS011;59083;47.974;21.722;2023-04-24T01:46:04;17.33;;;8.30;;
71298;SDS011;59083;47.974;21.722;2023-04-24T01:49:10;14.55;;;8.13;;
71298;SDS011;59083;47.974;21.722;2023-04-24T01:52:12;15.35;;;8.23;;
71298;SDS011;59083;47.974;21.722;2023-04-24T01:55:14;16.83;;;8.70;;
71298;SDS011;59083;47.974;21.722;2023-04-24T01:58:15;14.48;;;8.55;;
71298;SDS011;59083;47.974;21.722;2023-04-24T02:01:20;17.10;;;9.20;;
71298;SDS011;59083;47.974;21.722;2023-04-24T02:04:22;14.65;;;8.70;;
71298;SDS011;59083;47.974;21.722;2023-04-24T02:07:23;14.35;;;8.50;;
71298;SDS011;59083;47.974;21.722;2023-04-24T02:10:24;14.67;;;8.67;;
71298;SDS011;59083;47.974;21.722;2023-04-24T02:13:26;15.63;;;8.82;;
71298;SDS011;59083;47.974;21.722;2023-04-24T02:16:28;20.37;;;8.13;;
71298;SDS011;59083;47.974;21.722;2023-04-24T02:19:33;15.07;;;8.63;;
71298;SDS011;59083;47.974;21.722;2023-04-24T02:22:34;17.08;;;8.82;;
71298;SDS011;59083;47.974;21.722;2023-04-24T02:25:36;14.60;;;8.27;;
71298;SDS011;59083;47.974;21.722;2023-04-24T02:28:37;13.02;;;7.95;;
71298;SDS011;59083;47.974;21.722;2023-04-24T02:31:38;15.82;;;8.45;;
71298;SDS011;59083;47.974;21.722;2023-04-24T02:34:39;13.30;;;7.90;;
71298;SDS011;59083;47.974;21.722;2023-04-24T02:37:41;15.02;;;8.70;;
71298;SDS011;59083;47.974;21.722;2023-04-24T02:40:44;13.63;;;8.40;;
71298;SDS011;59083;47.974;21.722;2023-04-24T02:43:46;16.60;;;8.20;;
71298;SDS011;59083;47.974;21.722;2023-04-24T02:46:47;16.12;;;8.27;;
71298;SDS011;59083;47.974;21.722;2023-04-24T02:49:48;15.15;;;8.70;;
71298;SDS011;59083;47.974;21.722;2023-04-24T02:52:50;15.48;;;8.73;;
71298;SDS011;59083;47.974;21.722;2023-04-24T02:55:51;15.77;;;8.80;;
71298;SDS011;59083;47.974;21.722;2023-04-24T02:58:52;16.23;;;8.95;;
71298;SDS011;59083;47.974;21.722;2023-04-24T03:01:54;16.77;;;9.35;;
71298;SDS011;59083;47.974;21.722;2023-04-24T03:04:55;17.08;;;8.70;;
71298;SDS011;59083;47.974;21.722;2023-04-24T03:07:57;18.90;;;9.43;;
71298;SDS011;59083;47.974;21.722;2023-04-24T03:10:59;18.20;;;8.60;;
71298;SDS011;59083;47.974;21.722;2023-04-24T03:14:00;15.40;;;8.82;;
71298;SDS011;59083;47.974;21.722;2023-04-24T03:17:01;16.50;;;8.50;;
71298;SDS011;59083;47.974;21.722;2023-04-24T03:20:03;17.12;;;9.00;;
71298;SDS011;59083;47.974;21.722;2023-04-24T03:23:06;17.30;;;8.55;;
71298;SDS011;59083;47.974;21.722;2023-04-24T03:26:08;14.93;;;8.60;;
71298;SDS011;59083;47.974;21.722;2023-04-24T03:29:10;15.23;;;8.68;;
71298;SDS011;59083;47.974;21.722;2023-04-24T03:32:12;16.45;;;8.40;;
71298;SDS011;59083;47.974;21.722;2023-04-24T03:35:13;16.42;;;8.07;;
71298;SDS011;59083;47.974;21.722;2023-04-24T03:38:15;14.45;;;8.65;;
71298;SDS011;59083;47.974;21.722;2023-04-24T03:41:17;17.17;;;8.80;;
71298;SDS011;59083;47.974;21.722;2023-04-24T03:44:20;15.73;;;8.68;;
71298;SDS011;59083;47.974;21.722;2023-04-24T03:47:21;16.60;;;8.45;;
71298;SDS011;59083;47.974;21.722;2023-04-24T03:50:22;17.73;;;9.68;;
71298;SDS011;59083;47.974;21.722;2023-04-24T03:53:24;15.63;;;8.13;;
71298;SDS011;59083;47.974;21.722;2023-04-24T03:56:26;15.10;;;8.30;;
71298;SDS011;59083;47.974;21.722;2023-04-24T03:59:27;15.32;;;8.52;;
71298;SDS011;59083;47.974;21.722;2023-04-24T04:02:29;15.98;;;8.73;;
71298;SDS011;59083;47.974;21.722;2023-04-24T04:05:31;17.30;;;8.95;;
71298;SDS011;59083;47.974;21.722;2023-04-24T04:08:32;16.00;;;8.57;;
71298;SDS011;59083;47.974;21.722;2023-04-24T04:11:33;14.60;;;8.17;;
71298;SDS011;59083;47.974;21.722;2023-04-24T04:14:36;16.23;;;8.63;;
71298;SDS011;59083;47.974;21.722;2023-04-24T04:17:37;15.05;;;8.20;;
71298;SDS011;59083;47.974;21.722;2023-04-24T04:20:39;16.73;;;8.55;;
71298;SDS011;59083;47.974;21.722;2023-04-24T04:23:40;14.10;;;8.18;;
71298;SDS011;59083;47.974;21.722;2023-04-24T04:26:42;15.00;;;7.80;;
71298;SDS011;59083;47.974;21.722;2023-04-24T04:29:47;13.77;;;7.60;;
71298;SDS011;59083;47.974;21.722;2023-04-24T04:32:49;15.05;;;7.53;;
71298;SDS011;59083;47.974;21.722;2023-04-24T04:35:51;14.65;;;7.60;;
71298;SDS011;59083;47.974;21.722;2023-04-24T04:38:58;12.93;;;6.95;;
71298;SDS011;59083;47.974;21.722;2023-04-24T04:42:04;12.77;;;7.40;;
71298;SDS011;59083;47.974;21.722;2023-04-24T04:45:06;15.55;;;7.43;;
71298;SDS011;59083;47.974;21.722;2023-04-24T04:48:11;13.32;;;7.15;;
71298;SDS011;59083;47.974;21.722;2023-04-24T04:51:14;15.30;;;7.80;;
71298;SDS011;59083;47.974;21.722;2023-04-24T04:54:16;13.07;;;7.37;;
71298;SDS011;59083;47.974;21.722;2023-04-24T04:57:17;13.20;;;7.23;;
71298;SDS011;59083;47.974;21.722;2023-04-24T05:00:19;12.93;;;6.97;;
71298;SDS011;59083;47.974;21.722;2023-04-24T05:03:21;10.80;;;7.50;;
71298;SDS011;59083;47.974;21.722;2023-04-24T05:06:24;11.18;;;7.10;;
71298;SDS011;59083;47.974;21.722;2023-04-24T05:09:28;10.50;;;6.70;;
71298;SDS011;59083;47.974;21.722;2023-04-24T05:12:30;15.07;;;7.17;;
71298;SDS011;59083;47.974;21.722;2023-04-24T05:15:32;12.30;;;8.00;;
71298;SDS011;59083;47.974;21.722;2023-04-24T05:18:34;11.10;;;7.22;;
71298;SDS011;59083;47.974;21.722;2023-04-24T05:21:35;11.43;;;7.10;;
71298;SDS011;59083;47.974;21.722;2023-04-24T05:24:37;11.85;;;7.03;;
71298;SDS011;59083;47.974;21.722;2023-04-24T05:27:39;11.77;;;7.83;;
71298;SDS011;59083;47.974;21.722;2023-04-24T05:30:41;13.30;;;7.70;;
71298;SDS011;59083;47.974;21.722;2023-04-24T05:33:43;11.60;;;6.85;;
71298;SDS011;59083;47.974;21.722;2023-04-24T05:36:45;13.02;;;7.95;;
71298;SDS011;59083;47.974;21.722;2023-04-24T05:39:46;11.20;;;7.43;;
71298;SDS011;59083;47.974;21.722;2023-04-24T05:42:47;12.93;;;7.47;;
71298;SDS011;59083;47.974;21.722;2023-04-24T05:45:48;15.20;;;7.70;;
71298;SDS011;59083;47.974;21.722;2023-04-24T05:48:52;13.50;;;8.25;;
71298;SDS011;59083;47.974;21.722;2023-04-24T05:51:53;13.82;;;7.65;;
71298;SDS011;59083;47.974;21.722;2023-04-24T05:54:54;12.48;;;7.62;;
71298;SDS011;59083;47.974;21.722;2023-04-24T05:57:56;11.27;;;7.50;;
71298;SDS011;59083;47.974;21.722;2023-04-24T06:00:58;11.65;;;7.05;;
71298;SDS011;59083;47.974;21.722;2023-04-24T06:04:02;11.73;;;8.13;;
71298;SDS011;59083;47.974;21.722;2023-04-24T06:07:05;13.13;;;8.38;;
71298;SDS011;59083;47.974;21.722;2023-04-24T06:10:07;13.20;;;7.37;;
71298;SDS011;59083;47.974;21.722;2023-04-24T06:13:09;12.70;;;7.23;;
71298;SDS011;59083;47.974;21.722;2023-04-24T06:16:12;12.98;;;6.75;;
71298;SDS011;59083;47.974;21.722;2023-04-24T06:19:14;20.17;;;7.20;;
71298;SDS011;59083;47.974;21.722;2023-04-24T06:22:15;11.38;;;6.80;;
71298;SDS011;59083;47.974;21.722;2023-04-24T06:25:16;14.50;;;6.70;;
71298;SDS011;59083;47.974;21.722;2023-04-24T06:28:18;11.77;;;6.47;;
71298;SDS011;59083;47.974;21.722;2023-04-24T06:31:20;10.73;;;6.68;;
71298;SDS011;59083;47.974;21.722;2023-04-24T06:34:21;13.60;;;7.00;;
71298;SDS011;59083;47.974;21.722;2023-04-24T06:37:22;12.93;;;6.80;;
71298;SDS011;59083;47.974;21.722;2023-04-24T06:40:24;12.37;;;7.40;;
71298;SDS011;59083;47.974;21.722;2023-04-24T06:43:25;12.53;;;7.27;;
71298;SDS011;59083;47.974;21.722;2023-04-24T06:46:27;12.23;;;7.07;;
71298;SDS011;59083;47.974;21.722;2023-04-24T06:49:28;14.85;;;6.90;;
71298;SDS011;59083;47.974;21.722;2023-04-24T06:52:29;14.82;;;6.62;;
71298;SDS011;59083;47.974;21.722;2023-04-24T06:55:33;11.75;;;7.25;;
71298;SDS011;59083;47.974;21.722;2023-04-24T06:58:36;13.03;;;6.03;;
71298;SDS011;59083;47.974;21.722;2023-04-24T07:01:37;10.68;;;6.07;;
71298;SDS011;59083;47.974;21.722;2023-04-24T07:04:38;15.02;;;6.40;;
71298;SDS011;59083;47.974;21.722;2023-04-24T07:07:40;12.40;;;5.90;;
71298;SDS011;59083;47.974;21.722;2023-04-24T07:10:43;8.88;;;5.95;;
71298;SDS011;59083;47.974;21.722;2023-04-24T07:13:45;12.87;;;6.20;;
71298;SDS011;59083;47.974;21.722;2023-04-24T07:16:47;9.85;;;5.85;;
71298;SDS011;59083;47.974;21.722;2023-04-24T07:19:48;15.98;;;9.38;;
71298;SDS011;59083;47.974;21.722;2023-04-24T07:22:49;15.27;;;7.15;;
71298;SDS011;59083;47.974;21.722;2023-04-24T07:25:52;11.63;;;6.65;;
71298;SDS011;59083;47.974;21.722;2023-04-24T07:28:53;10.67;;;5.40;;
71298;SDS011;59083;47.974;21.722;2023-04-24T07:31:54;9.65;;;5.15;;
71298;SDS011;59083;47.974;21.722;2023-04-24T07:34:57;13.30;;;6.37;;
71298;SDS011;59083;47.974;21.722;2023-04-24T07:37:58;12.57;;;6.60;;
71298;SDS011;59083;47.974;21.722;2023-04-24T07:40:59;10.80;;;5.28;;
71298;SDS011;59083;47.974;21.722;2023-04-24T07:44:00;14.10;;;5.20;;
71298;SDS011;59083;47.974;21.722;2023-04-24T07:47:02;12.52;;;5.28;;
71298;SDS011;59083;47.974;21.722;2023-04-24T07:50:03;11.12;;;5.15;;
71298;SDS011;59083;47.974;21.722;2023-04-24T07:53:05;10.32;;;4.72;;
71298;SDS011;59083;47.974;21.722;2023-04-24T07:56:06;9.87;;;5.57;;
71298;SDS011;59083;47.974;21.722;2023-04-24T07:59:08;13.03;;;5.50;;
71298;SDS011;59083;47.974;21.722;2023-04-24T08:02:10;9.25;;;4.22;;
71298;SDS011;59083;47.974;21.722;2023-04-24T08:05:12;7.60;;;4.78;;
71298;SDS011;59083;47.974;21.722;2023-04-24T08:08:13;12.95;;;4.40;;
71298;SDS011;59083;47.974;21.722;2023-04-24T08:11:15;8.27;;;4.50;;
71298;SDS011;59083;47.974;21.722;2023-04-24T08:14:16;9.13;;;4.50;;
71298;SDS011;59083;47.974;21.722;2023-04-24T08:17:18;8.05;;;4.62;;
71298;SDS011;59083;47.974;21.722;2023-04-24T08:20:19;10.90;;;4.40;;
71298;SDS011;59083;47.974;21.722;2023-04-24T08:23:20;7.32;;;4.40;;
71298;SDS011;59083;47.974;21.722;2023-04-24T08:26:22;10.02;;;4.60;;
71298;SDS011;59083;47.974;21.722;2023-04-24T08:29:24;9.47;;;4.50;;
71298;SDS011;59083;47.974;21.722;2023-04-24T08:32:26;8.85;;;4.75;;
71298;SDS011;59083;47.974;21.722;2023-04-24T08:35:30;9.38;;;4.50;;
71298;SDS011;59083;47.974;21.722;2023-04-24T08:38:33;8.95;;;4.68;;
71298;SDS011;59083;47.974;21.722;2023-04-24T08:41:35;10.18;;;4.35;;
71298;SDS011;59083;47.974;21.722;2023-04-24T08:44:38;8.43;;;4.67;;
71298;SDS011;59083;47.974;21.722;2023-04-24T08:47:40;11.63;;;4.95;;
71298;SDS011;59083;47.974;21.722;2023-04-24T08:50:42;11.40;;;5.05;;
71298;SDS011;59083;47.974;21.722;2023-04-24T08:53:45;8.48;;;5.05;;
71298;SDS011;59083;47.974;21.722;2023-04-24T08:56:48;10.40;;;4.90;;
71298;SDS011;59083;47.974;21.722;2023-04-24T08:59:49;9.83;;;5.33;;
71298;SDS011;59083;47.974;21.722;2023-04-24T09:02:54;9.55;;;5.22;;
71298;SDS011;59083;47.974;21.722;2023-04-24T09:13:45;11.05;;;5.30;;
71298;SDS011;59083;47.974;21.722;2023-04-24T09:16:49;8.57;;;5.20;;
71298;SDS011;59083;47.974;21.722;2023-04-24T09:19:51;10.55;;;5.03;;
71298;SDS011;59083;47.974;21.722;2023-04-24T09:22:58;11.68;;;5.50;;
71298;SDS011;59083;47.974;21.722;2023-04-24T09:26:00;10.40;;;5.00;;
71298;SDS011;59083;47.974;21.722;2023-04-24T09:29:05;12.95;;;4.55;;
71298;SDS011;59083;47.974;21.722;2023-04-24T09:32:20;8.40;;;4.80;;
71298;SDS011;59083;47.974;21.722;2023-04-24T09:35:22;11.93;;;4.80;;
71298;SDS011;59083;47.974;21.722;2023-04-24T09:38:31;10.45;;;4.93;;
71298;SDS011;59083;47.974;21.722;2023-04-24T09:41:33;17.75;;;5.60;;
71298;SDS011;59083;47.974;21.722;2023-04-24T09:44:36;10.88;;;4.78;;
71298;SDS011;59083;47.974;21.722;2023-04-24T09:47:40;14.47;;;5.10;;
71298;SDS011;59083;47.974;21.722;2023-04-24T09:50:45;13.48;;;5.20;;
71298;SDS011;59083;47.974;21.722;2023-04-24T09:53:47;14.25;;;4.95;;
71298;SDS011;59083;47.974;21.722;2023-04-24T09:56:50;16.15;;;4.93;;
71298;SDS011;59083;47.974;21.722;2023-04-24T09:59:53;13.95;;;4.70;;
71298;SDS011;59083;47.974;21.722;2023-04-24T10:02:55;19.77;;;6.27;;
71298;SDS011;59083;47.974;21.722;2023-04-24T10:06:03;11.00;;;4.55;;
71298;SDS011;59083;47.974;21.722;2023-04-24T10:09:09;9.70;;;4.90;;
71298;SDS011;59083;47.974;21.722;2023-04-24T10:12:12;13.13;;;5.28;;
71298;SDS011;59083;47.974;21.722;2023-04-24T10:15:15;12.68;;;5.03;;
71298;SDS011;59083;47.974;21.722;2023-04-24T10:18:21;8.93;;;5.00;;
71298;SDS011;59083;47.974;21.722;2023-04-24T10:21:23;12.82;;;5.10;;
71298;SDS011;59083;47.974;21.722;2023-04-24T10:24:25;12.82;;;6.10;;
71298;SDS011;59083;47.974;21.722;2023-04-24T10:27:27;9.90;;;5.20;;
71298;SDS011;59083;47.974;21.722;2023-04-24T10:30:34;10.43;;;5.12;;
71298;SDS011;59083;47.974;21.722;2023-04-24T10:33:35;13.00;;;5.37;;
71298;SDS011;59083;47.974;21.722;2023-04-24T10:36:53;13.23;;;7.25;;
71298;SDS011;59083;47.974;21.722;2023-04-24T10:39:57;31.83;;;18.20;;
71298;SDS011;59083;47.974;21.722;2023-04-24T10:42:58;9.93;;;5.35;;
71298;SDS011;59083;47.974;21.722;2023-04-24T10:46:00;10.52;;;5.25;;
71298;SDS011;59083;47.974;21.722;2023-04-24T10:49:06;16.20;;;5.40;;
71298;SDS011;59083;47.974;21.722;2023-04-24T10:52:11;14.90;;;5.10;;
71298;SDS011;59083;47.974;21.722;2023-04-24T10:55:13;10.60;;;4.70;;
71298;SDS011;59083;47.974;21.722;2023-04-24T10:58:16;10.98;;;5.50;;
71298;SDS011;59083;47.974;21.722;2023-04-24T11:01:31;10.68;;;5.22;;
71298;SDS011;59083;47.974;21.722;2023-04-24T11:04:33;9.27;;;5.23;;
71298;SDS011;59083;47.974;21.722;2023-04-24T11:11:16;10.85;;;5.28;;
71298;SDS011;59083;47.974;21.722;2023-04-24T11:14:18;9.90;;;5.28;;
71298;SDS011;59083;47.974;21.722;2023-04-24T11:17:35;9.68;;;5.00;;
71298;SDS011;59083;47.974;21.722;2023-04-24T11:20:41;9.23;;;5.10;;
71298;SDS011;59083;47.974;21.722;2023-04-24T11:23:44;11.65;;;4.90;;
71298;SDS011;59083;47.974;21.722;2023-04-24T11:26:46;13.30;;;5.70;;
71298;SDS011;59083;47.974;21.722;2023-04-24T11:33:07;14.95;;;6.00;;
71298;SDS011;59083;47.974;21.722;2023-04-24T11:36:08;10.90;;;5.67;;
71298;SDS011;59083;47.974;21.722;2023-04-24T11:39:09;9.65;;;5.68;;
71298;SDS011;59083;47.974;21.722;2023-04-24T11:42:14;9.43;;;5.20;;
71298;SDS011;59083;47.974;21.722;2023-04-24T11:45:17;8.13;;;4.70;;
71298;SDS011;59083;47.974;21.722;2023-04-24T11:48:28;9.13;;;4.87;;
71298;SDS011;59083;47.974;21.722;2023-04-24T11:51:29;12.40;;;4.90;;
71298;SDS011;59083;47.974;21.722;2023-04-24T11:54:32;9.93;;;5.32;;
71298;SDS011;59083;47.974;21.722;2023-04-24T11:57:33;9.73;;;5.25;;
71298;SDS011;59083;47.974;21.722;2023-04-24T12:00:37;12.07;;;5.85;;
71298;SDS011;59083;47.974;21.722;2023-04-24T12:03:39;12.45;;;7.78;;
71298;SDS011;59083;47.974;21.722;2023-04-24T12:06:59;11.73;;;5.50;;
71298;SDS011;59083;47.974;21.722;2023-04-24T12:10:04;9.98;;;5.30;;
71298;SDS011;59083;47.974;21.722;2023-04-24T12:13:08;11.15;;;5.85;;
71298;SDS011;59083;47.974;21.722;2023-04-24T12:16:11;9.25;;;5.05;;
71298;SDS011;59083;47.974;21.722;2023-04-24T12:19:12;8.48;;;5.37;;
71298;SDS011;59083;47.974;21.722;2023-04-24T12:22:19;10.07;;;5.10;;
71298;SDS011;59083;47.974;21.722;2023-04-24T12:25:30;10.32;;;5.37;;
71298;SDS011;59083;47.974;21.722;2023-04-24T12:28:36;8.98;;;5.50;;
71298;SDS011;59083;47.974;21.722;2023-04-24T12:31:38;8.77;;;5.12;;
71298;SDS011;59083;47.974;21.722;2023-04-24T12:34:40;10.15;;;5.15;;
71298;SDS011;59083;47.974;21.722;2023-04-24T12:37:42;9.00;;;5.07;;
71298;SDS011;59083;47.974;21.722;2023-04-24T12:40:44;7.87;;;4.57;;
71298;SDS011;59083;47.974;21.722;2023-04-24T12:43:52;7.60;;;4.10;;
71298;SDS011;59083;47.974;21.722;2023-04-24T12:46:54;9.60;;;4.10;;
71298;SDS011;59083;47.974;21.722;2023-04-24T12:49:55;7.43;;;4.07;;
71298;SDS011;59083;47.974;21.722;2023-04-24T12:52:57;7.93;;;3.90;;
71298;SDS011;59083;47.974;21.722;2023-04-24T12:55:58;10.80;;;4.32;;
71298;SDS011;59083;47.974;21.722;2023-04-24T12:58:59;8.27;;;5.20;;
71298;SDS011;59083;47.974;21.722;2023-04-24T13:02:00;8.25;;;5.37;;
71298;SDS011;59083;47.974;21.722;2023-04-24T13:05:02;13.38;;;5.70;;
71298;SDS011;59083;47.974;21.722;2023-04-24T13:08:03;11.03;;;6.27;;
71298;SDS011;59083;47.974;21.722;2023-04-24T13:11:05;11.32;;;6.95;;
71298;SDS011;59083;47.974;21.722;2023-04-24T13:14:06;12.82;;;6.62;;
71298;SDS011;59083;47.974;21.722;2023-04-24T13:17:07;13.02;;;7.05;;
71298;SDS011;59083;47.974;21.722;2023-04-24T13:20:09;11.93;;;7.00;;
71298;SDS011;59083;47.974;21.722;2023-04-24T13:23:11;10.23;;;6.70;;
71298;SDS011;59083;47.974;21.722;2023-04-24T13:26:12;11.63;;;7.50;;
71298;SDS011;59083;47.974;21.722;2023-04-24T13:29:13;14.48;;;7.47;;
71298;SDS011;59083;47.974;21.722;2023-04-24T13:32:14;13.07;;;7.30;;
71298;SDS011;59083;47.974;21.722;2023-04-24T13:35:16;14.18;;;7.87;;
71298;SDS011;59083;47.974;21.722;2023-04-24T13:38:17;13.87;;;7.60;;
71298;SDS011;59083;47.974;21.722;2023-04-24T13:41:18;14.20;;;8.57;;
71298;SDS011;59083;47.974;21.722;2023-04-24T13:44:19;12.23;;;8.02;;
71298;SDS011;59083;47.974;21.722;2023-04-24T13:47:22;14.60;;;9.52;;
71298;SDS011;59083;47.974;21.722;2023-04-24T13:50:23;14.50;;;9.38;;
71298;SDS011;59083;47.974;21.722;2023-04-24T13:53:24;15.40;;;9.30;;
71298;SDS011;59083;47.974;21.722;2023-04-24T13:56:26;13.45;;;8.43;;
71298;SDS011;59083;47.974;21.722;2023-04-24T13:59:27;15.45;;;8.98;;
71298;SDS011;59083;47.974;21.722;2023-04-24T14:02:28;16.40;;;8.73;;
71298;SDS011;59083;47.974;21.722;2023-04-24T14:05:29;15.20;;;9.30;;
71298;SDS011;59083;47.974;21.722;2023-04-24T14:08:30;14.77;;;9.57;;
71298;SDS011;59083;47.974;21.722;2023-04-24T14:11:32;13.98;;;9.25;;
71298;SDS011;59083;47.974;21.722;2023-04-24T14:14:34;15.88;;;10.30;;
71298;SDS011;59083;47.974;21.722;2023-04-24T14:17:36;17.05;;;10.15;;
71298;SDS011;59083;47.974;21.722;2023-04-24T14:20:37;15.60;;;10.38;;
71298;SDS011;59083;47.974;21.722;2023-04-24T14:23:38;15.70;;;9.00;;
71298;SDS011;59083;47.974;21.722;2023-04-24T14:26:39;15.02;;;9.63;;
71298;SDS011;59083;47.974;21.722;2023-04-24T14:29:40;18.23;;;10.02;;
71298;SDS011;59083;47.974;21.722;2023-04-24T14:32:41;16.48;;;9.52;;
71298;SDS011;59083;47.974;21.722;2023-04-24T14:35:43;16.37;;;10.02;;
71298;SDS011;59083;47.974;21.722;2023-04-24T14:38:44;15.53;;;9.30;;
71298;SDS011;59083;47.974;21.722;2023-04-24T14:41:45;15.27;;;9.18;;
71298;SDS011;59083;47.974;21.722;2023-04-24T14:44:46;17.55;;;10.07;;
71298;SDS011;59083;47.974;21.722;2023-04-24T14:47:48;14.13;;;9.93;;
71298;SDS011;59083;47.974;21.722;2023-04-24T14:50:49;22.98;;;11.07;;
71298;SDS011;59083;47.974;21.722;2023-04-24T14:53:50;16.77;;;11.43;;
71298;SDS011;59083;47.974;21.722;2023-04-24T14:56:52;18.52;;;11.80;;
71298;SDS011;59083;47.974;21.722;2023-04-24T14:59:55;19.70;;;12.85;;
71298;SDS011;59083;47.974;21.722;2023-04-24T15:02:56;23.23;;;13.77;;
71298;SDS011;59083;47.974;21.722;2023-04-24T15:05:58;19.35;;;12.77;;
71298;SDS011;59083;47.974;21.722;2023-04-24T15:08:59;19.37;;;11.93;;
71298;SDS011;59083;47.974;21.722;2023-04-24T15:12:00;22.67;;;13.15;;
71298;SDS011;59083;47.974;21.722;2023-04-24T15:15:02;22.45;;;14.82;;
71298;SDS011;59083;47.974;21.722;2023-04-24T15:18:04;18.42;;;11.63;;
71298;SDS011;59083;47.974;21.722;2023-04-24T15:21:06;17.45;;;12.00;;
71298;SDS011;59083;47.974;21.722;2023-04-24T15:24:07;17.60;;;12.07;;
71298;SDS011;59083;47.974;21.722;2023-04-24T15:27:09;25.23;;;12.32;;
71298;SDS011;59083;47.974;21.722;2023-04-24T15:30:12;18.98;;;12.07;;
71298;SDS011;59083;47.974;21.722;2023-04-24T15:33:14;18.83;;;11.85;;
71298;SDS011;59083;47.974;21.722;2023-04-24T15:36:15;21.45;;;12.20;;
71298;SDS011;59083;47.974;21.722;2023-04-24T15:39:17;17.53;;;11.47;;
71298;SDS011;59083;47.974;21.722;2023-04-24T15:42:19;19.08;;;12.13;;
71298;SDS011;59083;47.974;21.722;2023-04-24T15:45:20;21.23;;;12.52;;
71298;SDS011;59083;47.974;21.722;2023-04-24T15:48:21;17.65;;;12.60;;
71298;SDS011;59083;47.974;21.722;2023-04-24T15:51:22;20.98;;;13.57;;
71298;SDS011;59083;47.974;21.722;2023-04-24T15:54:23;23.37;;;13.07;;
71298;SDS011;59083;47.974;21.722;2023-04-24T15:57:25;17.58;;;12.75;;
71298;SDS011;59083;47.974;21.722;2023-04-24T16:00:26;18.77;;;12.45;;
71298;SDS011;59083;47.974;21.722;2023-04-24T16:03:33;19.87;;;12.10;;
71298;SDS011;59083;47.974;21.722;2023-04-24T16:06:34;18.00;;;12.18;;
71298;SDS011;59083;47.974;21.722;2023-04-24T16:09:36;22.43;;;12.97;;
71298;SDS011;59083;47.974;21.722;2023-04-24T16:12:37;20.12;;;12.52;;
71298;SDS011;59083;47.974;21.722;2023-04-24T16:15:38;21.62;;;13.10;;
71298;SDS011;59083;47.974;21.722;2023-04-24T16:18:40;19.45;;;12.20;;
71298;SDS011;59083;47.974;21.722;2023-04-24T16:21:42;19.67;;;12.07;;
71298;SDS011;59083;47.974;21.722;2023-04-24T16:24:43;18.80;;;12.03;;
71298;SDS011;59083;47.974;21.722;2023-04-24T16:27:44;18.62;;;11.52;;
71298;SDS011;59083;47.974;21.722;2023-04-24T16:30:46;17.00;;;11.70;;
71298;SDS011;59083;47.974;21.722;2023-04-24T16:33:48;19.92;;;11.48;;
71298;SDS011;59083;47.974;21.722;2023-04-24T16:36:49;14.90;;;10.40;;
71298;SDS011;59083;47.974;21.722;2023-04-24T16:39:50;18.07;;;11.13;;
71298;SDS011;59083;47.974;21.722;2023-04-24T16:42:51;19.70;;;11.35;;
71298;SDS011;59083;47.974;21.722;2023-04-24T16:45:54;17.00;;;11.30;;
71298;SDS011;59083;47.974;21.722;2023-04-24T16:48:57;17.77;;;11.05;;
71298;SDS011;59083;47.974;21.722;2023-04-24T16:51:58;16.52;;;10.80;;
71298;SDS011;59083;47.974;21.722;2023-04-24T16:54:59;17.90;;;10.93;;
71298;SDS011;59083;47.974;21.722;2023-04-24T16:58:01;18.45;;;11.52;;
71298;SDS011;59083;47.974;21.722;2023-04-24T17:01:02;16.02;;;10.50;;
71298;SDS011;59083;47.974;21.722;2023-04-24T17:04:04;16.60;;;10.57;;
71298;SDS011;59083;47.974;21.722;2023-04-24T17:07:05;16.05;;;11.18;;
71298;SDS011;59083;47.974;21.722;2023-04-24T17:10:06;18.00;;;11.20;;
71298;SDS011;59083;47.974;21.722;2023-04-24T17:13:08;19.55;;;11.05;;
71298;SDS011;59083;47.974;21.722;2023-04-24T17:16:10;19.05;;;11.50;;
71298;SDS011;59083;47.974;21.722;2023-04-24T17:19:11;17.90;;;11.12;;
71298;SDS011;59083;47.974;21.722;2023-04-24T17:22:12;19.25;;;11.82;;
71298;SDS011;59083;47.974;21.722;2023-04-24T17:25:13;19.20;;;11.77;;
71298;SDS011;59083;47.974;21.722;2023-04-24T17:28:24;17.20;;;11.18;;
71298;SDS011;59083;47.974;21.722;2023-04-24T17:31:30;17.60;;;11.48;;
71298;SDS011;59083;47.974;21.722;2023-04-24T17:34:32;19.30;;;11.90;;
71298;SDS011;59083;47.974;21.722;2023-04-24T17:37:33;17.35;;;10.85;;
71298;SDS011;59083;47.974;21.722;2023-04-24T17:40:34;17.73;;;11.13;;
71298;SDS011;59083;47.974;21.722;2023-04-24T17:43:37;18.37;;;12.10;;
71298;SDS011;59083;47.974;21.722;2023-04-24T17:46:39;19.77;;;11.52;;
71298;SDS011;59083;47.974;21.722;2023-04-24T17:49:40;18.35;;;11.38;;
71298;SDS011;59083;47.974;21.722;2023-04-24T17:52:42;19.12;;;12.18;;
71298;SDS011;59083;47.974;21.722;2023-04-24T17:55:43;18.90;;;11.37;;
71298;SDS011;59083;47.974;21.722;2023-04-24T17:58:46;19.30;;;11.57;;
71298;SDS011;59083;47.974;21.722;2023-04-24T18:01:47;19.02;;;11.18;;